Fredricktwn, Ohio
Current Conditions -  °F | °C
As of 10:16 AM on Tuesday 21 Oct 2014 (Local Time) from K4I3 Reporting Station
Overcast Overcast  
Wind Chill: 45°   Ceiling: 1300
Heat Index: 48°   Visibility: 7mi
Dew Point: 46°   Wind: 8mph
Humidity: 93%   Direction: 320°NW
Pressure: 29.94"   Gusts: 16mph
Location:  40.4945°N, 82.5786°W
Report Text: K4I3 211416Z AUTO 32007G14KT 7SM OVC013 09/08 A2994 RMK AO2
Loading
Personal Weather Stations






























Interactive Weather Map
Tropical Storm Tracking
New forecast layout! Learn more

10-Day Weather Forecast

Advertisements
Track Severe Weather on mobile